Time;durP1;ratioP1;P1;durP2;ratioP2;P2;SDS_P1;SDS_P2;PMS_P1;PMS_P2;Temp;Humidity;BMP_temperature;BMP_pressure;BME280_temperature;BME280_humidity;BME280_pressure;Samples;Min_cycle;Max_cycle;Signal;HPM_P1;HPM_P2
2023/01/03 00:00:31;;;;;;;1.30;1.20;;;;;17.00;101386.00;;;;2045586;28;20572;-51
2023/01/03 00:01:32;;;;;;;1.43;1.10;;;;;17.00;101381.00;;;;2051192;28;20220;-52
2023/01/03 00:02:32;;;;;;;2.20;1.23;;;;;17.10;101383.00;;;;2054315;28;20319;-52
2023/01/03 00:03:32;;;;;;;1.23;1.13;;;;;17.00;101388.00;;;;2055059;28;20762;-51
2023/01/03 00:04:33;;;;;;;1.57;1.20;;;;;17.00;101386.00;;;;2055279;28;20216;-52
2023/01/03 00:05:34;;;;;;;1.30;1.20;;;;;17.00;101391.00;;;;2055343;28;20216;-54
2023/01/03 00:06:39;;;;;;;1.40;1.23;;;;;17.00;101381.00;;;;2054314;28;20283;-52
2023/01/03 00:07:39;;;;;;;1.52;1.20;;;;;17.00;101386.00;;;;2053452;28;20688;-54
2023/01/03 00:08:39;;;;;;;1.70;1.60;;;;;17.00;101395.00;;;;2054870;28;20225;-54
2023/01/03 00:09:40;;;;;;;1.53;1.20;;;;;17.00;101287.00;;;;2055180;28;20251;-55
2023/01/03 00:10:40;;;;;;;1.53;1.20;;;;;17.00;101390.00;;;;2055272;28;20251;-52
2023/01/03 00:12:59;;;;;;;1.70;1.30;;;;;17.00;101391.00;;;;2055382;28;20969;-55
2023/01/03 00:14:00;;;;;;;2.00;1.27;;;;;17.00;101386.00;;;;2055082;28;20252;-53
2023/01/03 00:15:00;;;;;;;1.50;1.23;;;;;17.00;101387.00;;;;2048021;28;20242;-53
2023/01/03 00:16:00;;;;;;;1.83;1.20;;;;;17.00;101385.00;;;;2047220;28;20209;-54
2023/01/03 00:17:01;;;;;;;1.63;1.40;;;;;17.00;101387.00;;;;2047158;28;20226;-54
2023/01/03 00:18:02;;;;;;;1.40;1.20;;;;;17.00;101393.00;;;;2047167;28;20299;-54
2023/01/03 00:19:12;;;;;;;1.13;1.03;;;;;17.00;101392.00;;;;2047197;28;20475;-53
2023/01/03 00:20:12;;;;;;;1.13;1.02;;;;;17.00;101401.00;;;;2046141;28;20267;-53
2023/01/03 00:21:13;;;;;;;2.30;1.63;;;;;17.00;101396.00;;;;2046504;28;20228;-53
2023/01/03 00:22:13;;;;;;;1.43;1.00;;;;;17.00;101398.00;;;;2046201;28;20237;-52
2023/01/03 00:23:14;;;;;;;1.50;1.20;;;;;17.00;101399.00;;;;2047272;28;20249;-55
2023/01/03 00:24:14;;;;;;;1.70;1.50;;;;;17.00;101397.00;;;;2046437;28;20695;-53
2023/01/03 00:25:15;;;;;;;1.40;1.20;;;;;17.00;101393.00;;;;2046154;28;20301;-53
2023/01/03 00:26:15;;;;;;;1.27;1.17;;;;;17.00;101399.00;;;;2047187;28;20219;-51
2023/01/03 00:27:16;;;;;;;1.50;1.40;;;;;17.00;101395.00;;;;2055187;28;20689;-51
2023/01/03 00:28:16;;;;;;;1.47;1.30;;;;;17.00;101391.00;;;;2055087;28;20227;-52
2023/01/03 00:29:16;;;;;;;1.60;1.30;;;;;17.00;101392.00;;;;2054857;28;20755;-54
2023/01/03 00:30:17;;;;;;;2.03;1.30;;;;;17.00;101395.00;;;;2054737;28;20823;-53
2023/01/03 00:31:17;;;;;;;1.27;1.17;;;;;17.00;101392.00;;;;2054901;28;20236;-52
2023/01/03 00:32:17;;;;;;;1.33;1.23;;;;;17.00;101389.00;;;;2054304;28;20740;-52
2023/01/03 00:33:18;;;;;;;1.80;1.50;;;;;17.00;101400.00;;;;2055015;28;20924;-52
2023/01/03 00:34:18;;;;;;;1.97;1.27;;;;;17.00;101391.00;;;;2055022;28;20251;-52
2023/01/03 00:35:18;;;;;;;1.77;1.07;;;;;17.00;101415.00;;;;2046307;28;20226;-54
2023/01/03 00:36:19;;;;;;;1.33;0.93;;;;;17.00;101395.00;;;;2054953;28;20938;-54
2023/01/03 00:37:19;;;;;;;1.40;1.20;;;;;17.00;101393.00;;;;2054931;28;20658;-53
2023/01/03 00:38:19;;;;;;;1.40;0.90;;;;;17.00;101394.00;;;;2054887;28;20302;-52
2023/01/03 00:39:20;;;;;;;1.87;1.13;;;;;17.00;101399.00;;;;2054970;28;20217;-53
2023/01/03 00:40:20;;;;;;;1.90;1.50;;;;;17.00;101398.00;;;;2054848;28;20227;-54
2023/01/03 00:41:20;;;;;;;1.60;1.50;;;;;17.00;101406.00;;;;2048334;28;20309;-51
2023/01/03 00:42:21;;;;;;;0.90;0.90;;;;;17.00;101400.00;;;;2046016;28;20239;-53
2023/01/03 00:43:30;;;;;;;1.20;1.10;;;;;17.00;101404.00;;;;2038594;28;20632;-54
2023/01/03 00:44:30;;;;;;;1.50;1.40;;;;;17.00;101400.00;;;;2037382;28;20244;-55
2023/01/03 00:45:31;;;;;;;1.13;1.00;;;;;17.00;101409.00;;;;2035998;28;20267;-52
2023/01/03 00:46:31;;;;;;;1.47;1.13;;;;;17.00;101412.00;;;;2038333;28;20533;-55
2023/01/03 00:47:31;;;;;;;1.27;1.07;;;;;17.00;101405.00;;;;2038699;28;20803;-54
2023/01/03 00:48:32;;;;;;;1.60;1.00;;;;;17.00;101406.00;;;;2038753;28;20213;-52
2023/01/03 00:49:32;;;;;;;1.13;0.83;;;;;17.00;101418.00;;;;2038297;28;20264;-53
2023/01/03 00:50:35;;;;;;;1.40;1.20;;;;;17.00;101415.00;;;;2033926;28;20755;-54
2023/01/03 00:51:37;;;;;;;1.70;1.20;;;;;17.00;101421.00;;;;2046689;28;20719;-53
2023/01/03 00:52:37;;;;;;;1.33;1.00;;;;;17.00;101420.00;;;;2047669;28;20212;-55
2023/01/03 00:53:38;;;;;;;1.40;1.00;;;;;17.00;101421.00;;;;2045652;28;20301;-53
2023/01/03 00:54:38;;;;;;;1.60;1.30;;;;;17.00;101416.00;;;;2046434;28;20221;-53
2023/01/03 00:55:39;;;;;;;1.13;1.00;;;;;17.00;101419.00;;;;2046340;28;20221;-53
2023/01/03 00:56:41;;;;;;;2.37;1.30;;;;;17.00;101418.00;;;;2045108;28;20229;-56
2023/01/03 00:57:42;;;;;;;1.45;0.90;;;;;17.00;101409.00;;;;2038026;28;20218;-54
2023/01/03 00:58:42;;;;;;;1.23;1.13;;;;;17.00;101424.00;;;;2045770;28;20300;-53
2023/01/03 00:59:43;;;;;;;1.40;1.00;;;;;17.00;101420.00;;;;2046620;28;20215;-52
2023/01/03 01:00:43;;;;;;;1.50;1.03;;;;;17.00;101422.00;;;;2046780;28;20228;-52
2023/01/03 01:01:49;;;;;;;2.20;1.27;;;;;17.00;101423.00;;;;2046267;28;25663;-53
2023/01/03 01:02:52;;;;;;;1.50;1.25;;;;;17.00;101430.00;;;;2042279;28;20234;-55
2023/01/03 01:03:55;;;;;;;1.55;1.20;;;;;17.00;101438.00;;;;2039007;28;20272;-53
2023/01/03 01:04:55;;;;;;;1.23;1.02;;;;;17.00;101438.00;;;;2049768;28;20313;-52
2023/01/03 01:05:56;;;;;;;1.63;0.97;;;;;17.00;101444.00;;;;2054738;28;20348;-52
2023/01/03 01:07:01;;;;;;;1.30;1.00;;;;;17.00;101435.00;;;;2054706;28;20243;-55
2023/01/03 01:08:01;;;;;;;1.30;1.00;;;;;17.00;101441.00;;;;2054677;28;20243;-53
2023/01/03 01:09:03;;;;;;;1.73;1.23;;;;;17.00;101441.00;;;;2054790;28;20698;-53
2023/01/03 01:10:04;;;;;;;1.83;1.10;;;;;17.00;101440.00;;;;2054596;28;20330;-52
2023/01/03 01:11:04;;;;;;;1.23;0.80;;;;;17.00;101446.00;;;;2054639;28;20216;-52
2023/01/03 01:12:05;;;;;;;1.53;1.10;;;;;17.00;101431.00;;;;2052772;28;20216;-54
2023/01/03 01:13:06;;;;;;;1.83;1.23;;;;;17.00;101434.00;;;;2054383;28;20630;-52
2023/01/03 01:14:18;;;;;;;1.43;1.33;;;;;17.00;101437.00;;;;2054914;28;20208;-52
2023/01/03 01:15:19;;;;;;;1.38;1.10;;;;;17.00;101445.00;;;;2054307;28;20556;-55
2023/01/03 01:16:25;;;;;;;1.50;1.20;;;;;17.00;101439.00;;;;2053886;28;20332;-54
2023/01/03 01:17:27;;;;;;;1.58;1.48;;;;;17.00;101431.00;;;;2054696;28;20220;-53
2023/01/03 01:18:27;;;;;;;1.30;1.20;;;;;17.00;101445.00;;;;2054018;28;20713;-54
2023/01/03 01:19:32;;;;;;;1.23;1.13;;;;;17.00;101351.00;;;;2053777;28;20213;-53
2023/01/03 01:20:33;;;;;;;1.48;1.30;;;;;17.00;101456.00;;;;2052263;28;20238;-54
2023/01/03 01:21:33;;;;;;;1.27;0.90;;;;;17.00;101449.00;;;;2049542;28;20740;-55
2023/01/03 01:22:34;;;;;;;1.80;1.00;;;;;17.00;101450.00;;;;2053790;28;20758;-54
2023/01/03 01:23:34;;;;;;;1.17;0.80;;;;;17.00;101443.00;;;;2054594;28;20761;-53
2023/01/03 01:24:35;;;;;;;1.90;1.10;;;;;17.00;101455.00;;;;2054515;28;20217;-52
2023/01/03 01:25:35;;;;;;;1.10;1.00;;;;;17.00;101455.00;;;;2054608;28;20516;-56
2023/01/03 01:26:35;;;;;;;1.20;1.10;;;;;17.00;101446.00;;;;2047169;28;20218;-53
2023/01/03 01:27:36;;;;;;;1.33;1.00;;;;;17.00;101448.00;;;;2046684;28;20692;-53
2023/01/03 01:28:36;;;;;;;2.03;1.10;;;;;17.00;101442.00;;;;2046345;28;20217;-53
2023/01/03 01:29:37;;;;;;;1.30;1.20;;;;;17.00;101444.00;;;;2053013;28;20224;-52
2023/01/03 01:30:37;;;;;;;1.60;1.00;;;;;17.00;101443.00;;;;2047375;28;20250;-53
2023/01/03 01:31:37;;;;;;;1.20;1.10;;;;;17.00;101454.00;;;;2046583;28;20236;-55
2023/01/03 01:32:38;;;;;;;1.10;1.00;;;;;17.00;101445.00;;;;2045817;28;20712;-53
2023/01/03 01:33:38;;;;;;;1.57;1.20;;;;;17.00;101445.00;;;;2046945;28;20332;-52
2023/01/03 01:34:38;;;;;;;1.07;0.87;;;;;17.00;101445.00;;;;2046496;28;20217;-53
2023/01/03 01:35:39;;;;;;;1.10;1.00;;;;;17.00;101449.00;;;;2046570;28;20489;-51
2023/01/03 01:36:40;;;;;;;1.20;1.00;;;;;17.00;101438.00;;;;2046601;28;20225;-55
2023/01/03 01:37:41;;;;;;;0.90;0.80;;;;;17.00;101446.00;;;;2046781;28;20276;-51
2023/01/03 01:38:41;;;;;;;1.43;0.90;;;;;17.00;101448.00;;;;2046721;28;20268;-53
2023/01/03 01:39:42;;;;;;;0.90;0.77;;;;;17.00;101454.00;;;;2046349;28;20221;-52
2023/01/03 01:40:42;;;;;;;1.27;1.10;;;;;17.00;101456.00;;;;2046020;28;20622;-55
2023/01/03 01:44:56;;;;;;;1.58;1.23;;;;;17.00;101460.00;;;;2045626;28;20238;-54
2023/01/03 01:46:04;;;;;;;1.67;1.10;;;;;17.00;101448.00;;;;2052336;28;20215;-52
2023/01/03 01:47:13;;;;;;;1.05;0.95;;;;;17.00;101460.00;;;;2045412;28;20225;-52
2023/01/03 01:48:13;;;;;;;1.45;1.17;;;;;17.00;101465.00;;;;2040655;28;20260;-52
2023/01/03 01:49:17;;;;;;;1.40;1.30;;;;;17.00;101466.00;;;;2038707;28;20627;-52
2023/01/03 01:50:37;;;;;;;1.25;1.08;;;;;17.00;101465.00;;;;2038889;28;20698;-50
2023/01/03 01:51:37;;;;;;;1.15;0.90;;;;;17.00;101455.00;;;;2052968;28;20319;-51
2023/01/03 01:52:39;;;;;;;1.27;1.17;;;;;17.00;101461.00;;;;2053123;28;20204;-51
2023/01/03 01:53:40;;;;;;;1.10;0.88;;;;;17.00;101472.00;;;;2038045;28;20335;-51
2023/01/03 01:54:40;;;;;;;1.30;1.13;;;;;17.00;101473.00;;;;2045995;28;20519;-52
2023/01/03 01:55:45;;;;;;;1.37;1.00;;;;;17.00;101468.00;;;;2054138;28;20575;-51
2023/01/03 01:56:47;;;;;;;0.90;0.70;;;;;17.00;101365.00;;;;2053661;28;20212;-53
2023/01/03 01:57:47;;;;;;;1.67;1.10;;;;;17.00;101483.00;;;;2046451;28;20240;-52
2023/01/03 01:58:49;;;;;;;1.10;1.00;;;;;17.00;101481.00;;;;2045573;28;20724;-53
2023/01/03 01:59:49;;;;;;;1.20;1.10;;;;;17.00;101487.00;;;;2053786;28;20216;-51
2023/01/03 02:00:50;;;;;;;1.50;1.10;;;;;17.00;101483.00;;;;2053382;28;20244;-55
2023/01/03 02:01:51;;;;;;;1.40;1.10;;;;;17.00;101488.00;;;;2052782;28;20223;-54
2023/01/03 02:02:51;;;;;;;1.27;1.00;;;;;17.00;101482.00;;;;2054503;28;20245;-55
2023/01/03 02:03:55;;;;;;;1.43;1.30;;;;;17.00;101485.00;;;;2053581;28;20201;-51
2023/01/03 02:04:55;;;;;;;1.10;0.90;;;;;17.00;101482.00;;;;2046222;28;20232;-53
2023/01/03 02:05:56;;;;;;;1.10;0.87;;;;;16.90;101485.00;;;;2053917;28;20231;-51
2023/01/03 02:06:56;;;;;;;1.83;1.20;;;;;17.00;101487.00;;;;2053499;28;20334;-50
2023/01/03 02:07:56;;;;;;;1.50;1.10;;;;;17.00;101483.00;;;;2045924;28;20271;-53
2023/01/03 02:08:57;;;;;;;1.33;1.17;;;;;16.90;101488.00;;;;2045626;28;20220;-53
2023/01/03 02:09:57;;;;;;;1.30;1.07;;;;;17.00;101486.00;;;;2053582;28;20212;-52
2023/01/03 02:11:20;;;;;;;1.73;1.10;;;;;17.00;101487.00;;;;2053684;28;20243;-52
2023/01/03 02:13:05;;;;;;;1.02;0.93;;;;;17.00;101490.00;;;;2047494;28;20249;-51
2023/01/03 02:14:12;;;;;;;1.20;1.02;;;;;17.00;101481.00;;;;2045476;28;20211;-55
2023/01/03 02:15:19;;;;;;;1.60;1.00;;;;;17.00;101487.00;;;;2054112;28;20672;-52
2023/01/03 02:16:55;;;;;;;2.45;1.27;;;;;17.00;101490.00;;;;2053823;28;20263;-51
2023/01/03 02:18:07;;;;;;;1.00;0.90;;;;;16.90;101491.00;;;;2053778;28;20407;-50
2023/01/03 02:19:35;;;;;;;1.70;1.08;;;;;17.00;101500.00;;;;2053785;28;20212;-51
2023/01/03 02:21:03;;;;;;;1.98;1.10;;;;;17.00;101500.00;;;;2045608;28;20685;-53
2023/01/03 02:22:31;;;;;;;1.20;0.95;;;;;17.00;101503.00;;;;2051217;28;20298;-50
2023/01/03 02:24:00;;;;;;;1.33;0.80;;;;;17.00;101504.00;;;;2052977;28;20219;-51
2023/01/03 02:25:19;;;;;;;1.27;0.90;;;;;17.00;101508.00;;;;2053026;28;20224;-53
2023/01/03 02:26:49;;;;;;;1.58;0.90;;;;;17.00;101513.00;;;;2053498;28;20231;-53
2023/01/03 02:28:10;;;;;;;1.45;1.17;;;;;17.00;101505.00;;;;2052942;28;21085;-53
2023/01/03 02:29:47;;;;;;;1.92;1.30;;;;;17.00;101509.00;;;;2047418;28;20337;-56
2023/01/03 02:31:26;;;;;;;1.00;0.90;;;;;17.00;101515.00;;;;2053410;28;20217;-52
2023/01/03 02:32:37;;;;;;;1.00;0.82;;;;;17.00;101511.00;;;;2027604;29;20650;-52
2023/01/03 02:33:44;;;;;;;1.27;1.10;;;;;17.00;101507.00;;;;2026566;29;20230;-52
2023/01/03 02:35:16;;;;;;;1.50;1.00;;;;;17.00;101513.00;;;;2028085;29;20294;-54
2023/01/03 02:36:35;;;;;;;1.67;1.30;;;;;17.00;101513.00;;;;2038374;28;20555;-53
2023/01/03 02:37:39;;;;;;;0.93;0.75;;;;;16.90;101506.00;;;;2044287;28;20213;-52
2023/01/03 02:39:00;;;;;;;0.93;0.80;;;;;16.90;101509.00;;;;2045298;28;20724;-55
2023/01/03 02:40:26;;;;;;;2.22;1.25;;;;;16.90;101509.00;;;;2048065;28;20231;-52
2023/01/03 02:41:45;;;;;;;1.55;1.00;;;;;16.90;101511.00;;;;2041956;28;20612;-52
2023/01/03 02:43:05;;;;;;;1.50;1.20;;;;;17.00;101496.00;;;;2048712;28;20225;-55
2023/01/03 02:44:17;;;;;;;1.33;1.23;;;;;17.00;101522.00;;;;2044903;28;20216;-55
2023/01/03 02:45:26;;;;;;;1.77;1.10;;;;;16.90;101513.00;;;;2048924;28;20735;-53
2023/01/03 02:46:30;;;;;;;1.10;0.88;;;;;16.90;101404.00;;;;2045282;28;20218;-53
2023/01/03 02:47:53;;;;;;;1.45;1.02;;;;;16.90;101519.00;;;;2038910;28;20222;-52
2023/01/03 02:49:05;;;;;;;1.00;0.88;;;;;17.00;101511.00;;;;2047754;28;20215;-54
2023/01/03 02:50:07;;;;;;;1.13;0.90;;;;;17.00;101505.00;;;;2049038;28;20231;-52
2023/01/03 02:51:12;;;;;;;1.60;1.00;;;;;16.90;101504.00;;;;2037476;28;20661;-52
2023/01/03 02:52:13;;;;;;;1.17;0.80;;;;;16.90;101506.00;;;;2036842;28;20664;-54
2023/01/03 02:53:23;;;;;;;1.27;0.90;;;;;17.00;101507.00;;;;2037888;28;20249;-53
2023/01/03 02:54:27;;;;;;;1.20;1.02;;;;;17.00;101508.00;;;;2046911;28;20206;-55
2023/01/03 02:55:28;;;;;;;1.45;1.13;;;;;17.00;101526.00;;;;2044980;28;20236;-54
2023/01/03 02:56:41;;;;;;;1.63;1.17;;;;;17.00;101512.00;;;;2045540;28;20611;-52
2023/01/03 02:57:47;;;;;;;1.15;1.05;;;;;16.90;101511.00;;;;2045311;28;20690;-52
2023/01/03 02:58:53;;;;;;;1.30;0.80;;;;;16.90;101506.00;;;;2038735;28;20261;-53
2023/01/03 02:59:57;;;;;;;1.30;0.85;;;;;16.60;101518.00;;;;2046462;28;20217;-52
2023/01/03 03:00:58;;;;;;;1.85;1.10;;;;;16.90;101513.00;;;;2037477;28;20241;-52
2023/01/03 03:01:59;;;;;;;1.30;1.17;;;;;16.90;101519.00;;;;2044762;28;20279;-52
2023/01/03 03:03:03;;;;;;;1.80;1.27;;;;;16.90;101509.00;;;;2037638;28;20260;-53
2023/01/03 03:04:05;;;;;;;1.38;1.20;;;;;16.90;101516.00;;;;2037813;28;20272;-52
2023/01/03 03:05:07;;;;;;;2.35;1.50;;;;;17.00;101512.00;;;;2040983;28;20223;-53
2023/01/03 03:06:22;;;;;;;1.70;1.30;;;;;17.00;101515.00;;;;2045647;28;20216;-52
2023/01/03 03:07:27;;;;;;;3.10;1.23;;;;;17.00;101518.00;;;;2053185;28;20655;-53
2023/01/03 03:08:27;;;;;;;1.23;0.98;;;;;17.00;101516.00;;;;2045360;28;20266;-54
2023/01/03 03:09:28;;;;;;;1.90;1.27;;;;;17.00;101521.00;;;;2045449;28;20252;-53
2023/01/03 03:13:32;;;;;;;1.55;1.05;;;;;17.00;101524.00;;;;2053467;28;20219;-51
2023/01/03 03:14:43;;;;;;;1.17;0.90;;;;;17.00;101521.00;;;;2050941;28;20208;-51
2023/01/03 03:15:51;;;;;;;1.30;1.17;;;;;17.00;101517.00;;;;2049399;28;20212;-54
2023/01/03 03:16:52;;;;;;;1.33;1.02;;;;;16.90;101512.00;;;;2038648;28;20245;-53
2023/01/03 03:17:54;;;;;;;1.55;0.90;;;;;16.90;101518.00;;;;2037583;28;20212;-54
2023/01/03 03:18:58;;;;;;;2.65;1.40;;;;;16.90;101517.00;;;;2051381;28;20212;-52
2023/01/03 03:25:53;;;;;;;1.33;1.20;;;;;16.90;101524.00;;;;2034074;29;20693;-54
2023/01/03 03:26:53;;;;;;;1.65;1.35;;;;;16.90;101510.00;;;;2040766;28;20623;-54
2023/01/03 03:29:16;;;;;;;1.08;0.98;;;;;16.90;101524.00;;;;2040219;29;20217;-52
2023/01/03 03:30:17;;;;;;;1.50;1.03;;;;;16.90;101516.00;;;;2034368;29;20214;-55
2023/01/03 03:31:32;;;;;;;1.25;1.15;;;;;16.90;101514.00;;;;2036792;28;20902;-54
2023/01/03 03:32:33;;;;;;;2.67;1.23;;;;;16.90;101511.00;;;;2052170;28;20222;-52
2023/01/03 03:33:37;;;;;;;1.33;1.23;;;;;16.90;101514.00;;;;2053931;28;20220;-52
2023/01/03 03:34:37;;;;;;;1.52;1.08;;;;;17.00;101510.00;;;;2045239;28;20622;-52
2023/01/03 03:35:58;;;;;;;1.10;0.90;;;;;16.90;101517.00;;;;2038434;28;20229;-52
2023/01/03 03:37:01;;;;;;;1.77;1.15;;;;;16.90;101496.00;;;;2054989;28;20246;-53
2023/01/03 03:38:02;;;;;;;1.60;1.20;;;;;16.90;101520.00;;;;2046417;28;20212;-53
2023/01/03 03:39:02;;;;;;;1.30;1.20;;;;;16.90;101523.00;;;;2039410;28;20297;-52
2023/01/03 03:46:06;;;;;;;2.20;1.58;;;;;16.90;101519.00;;;;2026480;29;20650;-56
2023/01/03 03:47:24;;;;;;;2.60;1.20;;;;;17.00;101521.00;;;;2032500;28;20720;-52
2023/01/03 03:49:36;;;;;;;2.05;1.08;;;;;16.90;101517.00;;;;2039526;28;20204;-53
2023/01/03 03:50:01;;;;;;;1.20;1.10;;;;;16.90;101519.00;;;;2045899;28;20216;-52
2023/01/03 03:51:10;;;;;;;1.90;1.23;;;;;16.90;101518.00;;;;2054855;28;20212;-56
2023/01/03 03:52:15;;;;;;;3.45;1.60;;;;;16.90;101502.00;;;;2029880;28;20229;-52
2023/01/03 03:53:16;;;;;;;1.35;1.02;;;;;16.90;101497.00;;;;2047458;28;20692;-53
2023/01/03 03:54:18;;;;;;;1.20;1.00;;;;;16.90;101509.00;;;;2046507;28;20216;-52
2023/01/03 03:55:29;;;;;;;2.40;1.17;;;;;17.00;101507.00;;;;2038950;28;20217;-52
2023/01/03 03:56:30;;;;;;;1.33;1.15;;;;;17.00;101515.00;;;;2033228;28;20222;-53
2023/01/03 03:57:37;;;;;;;1.55;1.00;;;;;16.90;101523.00;;;;2038974;28;20217;-52
2023/01/03 03:58:40;;;;;;;1.10;1.00;;;;;16.90;101521.00;;;;2041298;29;20294;-53
2023/01/03 03:59:42;;;;;;;1.38;0.93;;;;;16.90;101527.00;;;;2046749;28;20341;-52
2023/01/03 04:00:43;;;;;;;1.30;1.10;;;;;16.90;101525.00;;;;2046620;28;20304;-52
2023/01/03 04:01:43;;;;;;;1.57;1.10;;;;;16.90;101521.00;;;;2030163;29;20218;-52
2023/01/03 04:02:45;;;;;;;1.67;1.07;;;;;16.90;101531.00;;;;2038305;28;20213;-53
2023/01/03 04:03:46;;;;;;;1.58;1.10;;;;;17.00;101527.00;;;;2046366;28;20222;-53
2023/01/03 04:04:46;;;;;;;1.30;1.13;;;;;16.90;101523.00;;;;2038581;28;20309;-56
2023/01/03 04:05:53;;;;;;;1.23;1.13;;;;;16.90;101523.00;;;;2031037;29;20235;-52
2023/01/03 04:06:53;;;;;;;1.55;1.30;;;;;16.90;101521.00;;;;2024692;28;20218;-56
2023/01/03 04:07:54;;;;;;;1.30;1.00;;;;;16.90;101523.00;;;;2038554;28;20221;-53
2023/01/03 04:08:54;;;;;;;1.43;1.20;;;;;16.90;101524.00;;;;2046583;28;20312;-55
2023/01/03 04:09:54;;;;;;;1.53;1.30;;;;;16.90;101531.00;;;;2054205;28;20303;-55
2023/01/03 04:11:04;;;;;;;1.27;1.00;;;;;16.90;101533.00;;;;2055306;28;20216;-53
2023/01/03 04:12:04;;;;;;;1.30;1.10;;;;;16.90;101522.00;;;;2053676;28;20240;-54
2023/01/03 04:13:05;;;;;;;1.53;0.90;;;;;16.90;101527.00;;;;2054767;28;20623;-52
2023/01/03 04:14:05;;;;;;;1.50;1.00;;;;;16.90;101528.00;;;;2049543;28;20225;-52
2023/01/03 04:15:06;;;;;;;1.13;1.00;;;;;16.90;101528.00;;;;2055030;28;20712;-54
2023/01/03 04:16:07;;;;;;;1.43;1.00;;;;;16.90;101527.00;;;;2051649;28;20208;-54
2023/01/03 04:17:07;;;;;;;1.30;1.00;;;;;16.90;101530.00;;;;2055035;28;20448;-53
2023/01/03 04:18:07;;;;;;;1.20;1.10;;;;;16.90;101526.00;;;;2055165;28;20220;-52
2023/01/03 04:19:08;;;;;;;1.87;1.13;;;;;16.90;101537.00;;;;2055273;28;20420;-53
2023/01/03 04:20:09;;;;;;;1.37;1.27;;;;;16.90;101531.00;;;;2048416;28;20217;-52
2023/01/03 04:21:09;;;;;;;1.43;1.20;;;;;16.90;101530.00;;;;2047977;28;20223;-53
2023/01/03 04:22:09;;;;;;;1.60;1.30;;;;;16.90;101546.00;;;;2054121;28;20514;-52
2023/01/03 04:23:10;;;;;;;1.87;1.30;;;;;16.90;101533.00;;;;2047220;28;20299;-53
2023/01/03 04:24:10;;;;;;;1.60;1.10;;;;;16.90;101425.00;;;;2047055;28;20213;-53
2023/01/03 04:25:10;;;;;;;1.50;1.30;;;;;16.90;101539.00;;;;2047038;28;20227;-53
2023/01/03 04:26:10;;;;;;;1.40;1.30;;;;;16.90;101534.00;;;;2046996;28;20968;-54
2023/01/03 04:27:11;;;;;;;1.20;1.10;;;;;16.90;101555.00;;;;2047009;28;20616;-53
2023/01/03 04:28:11;;;;;;;2.27;1.40;;;;;16.90;101534.00;;;;2047143;28;20632;-53
2023/01/03 04:29:11;;;;;;;1.40;1.30;;;;;16.90;101530.00;;;;2045433;28;20711;-53
2023/01/03 04:30:12;;;;;;;1.77;1.37;;;;;16.90;101540.00;;;;2046163;28;20666;-54
2023/01/03 04:31:12;;;;;;;1.70;1.13;;;;;16.90;101536.00;;;;2046617;28;20376;-52
2023/01/03 04:32:12;;;;;;;1.80;1.20;;;;;16.90;101532.00;;;;2046415;28;20255;-52
2023/01/03 04:33:13;;;;;;;1.50;1.07;;;;;16.90;101532.00;;;;2047082;28;20927;-51
2023/01/03 04:34:13;;;;;;;2.00;1.53;;;;;16.90;101526.00;;;;2046940;28;20299;-52
2023/01/03 04:35:14;;;;;;;1.20;1.10;;;;;16.90;101525.00;;;;2047034;28;20215;-54
2023/01/03 04:36:14;;;;;;;1.30;1.20;;;;;16.90;101532.00;;;;2046930;28;20232;-53
2023/01/03 04:37:14;;;;;;;2.00;1.27;;;;;16.90;101535.00;;;;2047162;28;20642;-52
2023/01/03 04:38:14;;;;;;;1.60;1.30;;;;;16.90;101530.00;;;;2047019;28;20560;-52
2023/01/03 04:39:15;;;;;;;1.17;1.03;;;;;16.90;101532.00;;;;2050535;28;20558;-52
2023/01/03 04:40:15;;;;;;;2.13;1.40;;;;;16.90;101538.00;;;;2054940;28;20221;-52
2023/01/03 04:41:15;;;;;;;1.20;1.10;;;;;16.90;101536.00;;;;2049225;28;20210;-53
2023/01/03 04:44:53;;;;;;;2.10;1.40;;;;;16.90;101538.00;;;;2055059;28;20594;-53
2023/01/03 04:45:54;;;;;;;1.50;1.10;;;;;16.90;101531.00;;;;2055169;28;20216;-53
2023/01/03 04:46:54;;;;;;;1.10;0.90;;;;;16.90;101529.00;;;;2053820;28;20212;-57
2023/01/03 04:47:54;;;;;;;1.30;1.20;;;;;16.90;101531.00;;;;2054197;28;20208;-52
2023/01/03 04:48:55;;;;;;;1.40;1.03;;;;;16.90;101523.00;;;;2054133;28;20219;-54
2023/01/03 04:49:55;;;;;;;1.20;1.10;;;;;16.90;101533.00;;;;2055007;28;20552;-54
2023/01/03 04:50:57;;;;;;;2.10;1.00;;;;;16.90;101536.00;;;;2054949;28;20215;-54
2023/01/03 04:51:57;;;;;;;1.10;1.00;;;;;16.90;101527.00;;;;2051113;28;20227;-54
2023/01/03 04:52:58;;;;;;;1.90;1.30;;;;;16.90;101531.00;;;;2054051;28;20893;-54
2023/01/03 04:53:58;;;;;;;1.00;0.90;;;;;16.90;101534.00;;;;2054393;28;20593;-54
2023/01/03 04:54:58;;;;;;;1.20;1.00;;;;;16.90;101530.00;;;;2054400;28;20278;-50
2023/01/03 04:55:59;;;;;;;1.87;1.10;;;;;16.90;101538.00;;;;2054435;28;20767;-51
2023/01/03 04:56:59;;;;;;;1.77;1.20;;;;;16.90;101534.00;;;;2054354;28;20252;-54
2023/01/03 04:58:00;;;;;;;1.60;1.17;;;;;16.90;101363.00;;;;2053549;28;21063;-53
2023/01/03 04:59:00;;;;;;;1.60;1.30;;;;;16.90;101542.00;;;;2053670;28;20729;-56
2023/01/03 05:00:00;;;;;;;1.00;0.90;;;;;16.90;101538.00;;;;2054504;28;20624;-54
2023/01/03 05:01:02;;;;;;;1.47;1.00;;;;;16.90;101539.00;;;;2054481;28;20580;-53
2023/01/03 05:02:02;;;;;;;1.48;1.15;;;;;16.90;101535.00;;;;2053719;28;20218;-54
2023/01/03 05:03:02;;;;;;;1.10;0.87;;;;;16.90;101538.00;;;;2054348;28;20232;-52
2023/01/03 05:04:03;;;;;;;1.43;1.00;;;;;16.90;101431.00;;;;2054306;28;20212;-53
2023/01/03 05:05:04;;;;;;;1.97;1.57;;;;;16.90;101540.00;;;;2049711;28;20280;-53
2023/01/03 05:06:06;;;;;;;1.30;0.90;;;;;16.90;101536.00;;;;2046535;28;20540;-54
2023/01/03 05:07:06;;;;;;;1.48;1.10;;;;;16.90;101536.00;;;;2046349;28;20825;-54
2023/01/03 05:08:08;;;;;;;1.60;1.30;;;;;16.90;101532.00;;;;2046380;28;20221;-54
2023/01/03 05:09:08;;;;;;;1.73;1.35;;;;;16.90;101535.00;;;;2046887;28;20702;-54
2023/01/03 05:10:09;;;;;;;1.40;1.30;;;;;16.90;101539.00;;;;2046623;28;20301;-54
2023/01/03 05:11:09;;;;;;;1.20;1.03;;;;;16.90;101533.00;;;;2046801;28;20221;-54
2023/01/03 05:12:11;;;;;;;1.17;1.07;;;;;16.90;101535.00;;;;2045998;28;20339;-51
2023/01/03 05:13:11;;;;;;;1.00;0.90;;;;;16.90;101536.00;;;;2046479;28;20212;-53
2023/01/03 05:14:11;;;;;;;1.30;1.10;;;;;16.90;101535.00;;;;2046806;28;20689;-54
2023/01/03 05:15:12;;;;;;;1.10;1.00;;;;;16.90;101544.00;;;;2046703;28;20684;-52
2023/01/03 05:16:14;;;;;;;1.40;1.10;;;;;16.90;101540.00;;;;2046945;28;20677;-54
2023/01/03 05:17:14;;;;;;;1.90;1.23;;;;;16.90;101548.00;;;;2046865;28;20308;-52
2023/01/03 05:18:15;;;;;;;1.70;1.20;;;;;16.90;101546.00;;;;2045944;28;20286;-53
2023/01/03 05:19:15;;;;;;;1.90;1.50;;;;;16.90;101535.00;;;;2045885;28;20209;-53
2023/01/03 05:25:49;;;;;;;1.10;1.00;;;;;16.90;101541.00;;;;2054304;28;20237;-53
2023/01/03 05:26:49;;;;;;;1.10;0.98;;;;;16.90;101538.00;;;;2054231;28;20224;-53
2023/01/03 05:27:49;;;;;;;1.40;1.20;;;;;16.90;101542.00;;;;2053876;28;20225;-51
2023/01/03 05:28:51;;;;;;;1.60;1.50;;;;;16.90;101544.00;;;;2045715;28;20276;-52
2023/01/03 05:29:52;;;;;;;1.88;1.10;;;;;16.90;101539.00;;;;2053858;28;20215;-53
2023/01/03 05:30:52;;;;;;;1.80;0.90;;;;;16.90;101539.00;;;;2054431;28;20222;-53
2023/01/03 05:31:52;;;;;;;1.60;1.20;;;;;16.90;101545.00;;;;2053563;28;20221;-54
2023/01/03 05:32:53;;;;;;;1.43;1.10;;;;;16.90;101532.00;;;;2053563;28;20240;-51
2023/01/03 05:33:53;;;;;;;1.33;1.20;;;;;16.90;101534.00;;;;2053577;28;20312;-52
2023/01/03 05:34:53;;;;;;;1.27;0.90;;;;;16.90;101542.00;;;;2054282;28;20286;-54
2023/01/03 05:35:54;;;;;;;1.67;1.10;;;;;16.90;101538.00;;;;2054375;28;20315;-54
2023/01/03 05:36:54;;;;;;;1.97;1.20;;;;;16.90;101540.00;;;;2054213;28;20220;-54
2023/01/03 05:37:54;;;;;;;1.37;0.97;;;;;16.90;101539.00;;;;2054380;28;20268;-54
2023/01/03 05:38:55;;;;;;;1.47;1.10;;;;;16.90;101536.00;;;;2054163;28;20219;-54
2023/01/03 05:39:55;;;;;;;1.63;0.80;;;;;16.90;101540.00;;;;2045711;28;20390;-51
2023/01/03 05:40:55;;;;;;;2.37;1.20;;;;;16.90;101534.00;;;;2045598;28;20216;-52
2023/01/03 05:41:58;;;;;;;1.80;0.90;;;;;16.90;101536.00;;;;2045391;28;20232;-53
2023/01/03 05:42:59;;;;;;;1.60;1.00;;;;;16.90;101534.00;;;;2045867;28;20587;-54
2023/01/03 05:43:59;;;;;;;1.80;1.20;;;;;16.90;101556.00;;;;2037839;29;20224;-53